Weather observations for the past three days for
Astronaut Kent Rominger - Del Norte
Imperial (Metric)
Date Time (mdt) Wind (mph) Vis. (mi.) Weather Sky Cond. Temperature (ºF) Relative Humidity Wind Chill (°F) Heat Index (°F) Pressure Precipitation (in)
Air Dwpt 6 hour altimeter (in) sea level (mb) 1 hr 3 hr 6 hr
Max. Min.
08 06:15 W 12 10.00 Fair CLR 40.3 23 50% 34 30.14 0.0
08 05:55 W 9 10.00 Fair CLR 40.5 22.8 49.6 40.1 49% 35 30.13 0.0
08 05:35 W 9 10.00 Fair CLR 40.1 22.8 50% 35 30.13 0.0
08 05:15 W 9 10.00 Fair CLR 41.9 23 47% 37 30.13 0.0
08 04:55 W 10 10.00 Fair CLR 42.4 23 46% 37 30.13 0.0
08 04:35 SW 9 10.00 Partly Cloudy SCT100 43.3 23 45% 39 30.13 0.0
08 04:15 W 9 10.00 Overcast OVC100 42.6 23.2 46% 38 30.13 0.0
08 03:55 W 8 10.00 Partly Cloudy SCT100 42.3 22.8 46% 38 30.13 0.0
08 03:35 W 8 10.00 Mostly Cloudy BKN100 44.4 22.8 42% 40 30.13 0.0
08 03:15 W 13 10.00 Partly Cloudy SCT100 44.1 22.5 42% 38 30.14 0.0
08 02:55 W 12 10.00 Partly Cloudy SCT110 42.1 23.9 49% 36 30.13 0.0
08 02:35 W 8 10.00 Mostly Cloudy BKN110 45.9 23.9 42% 42 30.14 0.0
08 02:15 W 5 10.00 Overcast SCT060 SCT070 OVC110 47.3 23 38% 46 30.15 0.0
08 01:55 NW 8 10.00 Overcast OVC100 48 22.1 36% 45 30.15 0.0
08 01:35 W 10 10.00 Overcast OVC100 47.5 22.3 37% 43 30.15 0.0
08 01:15 W 8 10.00 Overcast OVC100 46.9 22.8 39% 44 30.15 0.0
08 00:55 W 9 10.00 Overcast OVC110 48.6 21.2 34% 45 30.14 0.0
08 00:35 NW 8 10.00 Overcast OVC110 48.6 21.2 34% 45 30.15 0.0
08 00:15 W 3 10.00 Overcast OVC110 48.9 21.6 34% 30.14 0.0
07 23:55 W 7 10.00 Overcast OVC110 49.6 21.2 60.3 44.1 33% 47 30.14 0.0
07 23:35 W 8 10.00 Overcast OVC110 49.1 19.9 32% 46 30.14 0.0
07 23:15 W 10 10.00 Overcast OVC110 50.2 19.9 30% 30.15 0.0
07 22:55 NW 6 10.00 Mostly Cloudy BKN120 45.3 18.7 34% 43 30.14 0.0
07 22:35 W 7 10.00 Partly Cloudy SCT120 46.4 17.4 31% 43 30.15 0.0
07 22:15 W 6 10.00 Fair CLR 46.9 17.8 31% 45 30.15 0.0
07 21:55 W 8 10.00 Fair CLR 50.5 18.5 28% 30.15 0.0
07 21:35 W 9 10.00 Fair CLR 50.9 18.9 28% 30.14 0.0
07 21:15 W 9 10.00 Fair CLR 50.4 18.5 28% 30.14 0.0
07 20:55 W 8 10.00 Fair CLR 52.9 18.7 26% 30.12 0.0
07 20:35 W 8 10.00 Partly Cloudy SCT120 53.1 19.2 26% 30.11 0.0
07 20:15 NW 7 10.00 Partly Cloudy SCT120 54.7 19.4 25% 30.11 0.0
07 19:55 W 5 10.00 Partly Cloudy SCT100 SCT120 57.6 21.2 24% 30.1 0.0
07 19:35 Calm 10.00 Overcast OVC100 59 22.1 24% 30.09 0.0
07 19:15 S 5 10.00 Overcast OVC100 60.1 22.1 23% 30.09 0.0
07 18:55 E 3 10.00 Overcast SCT090 OVC110 59 23.7 26% 30.09 0.0
07 18:35 SE 6 10.00 Overcast OVC110 59.5 22.6 24% 30.09 0.0
07 18:15 SE 8 10.00 Overcast OVC110 59.7 22.3 24% 30.09 0.0
07 17:55 SE 7 10.00 Overcast OVC110 60.1 21.9 64 48.4 23% 30.09 0.0
07 17:35 SE 8 10.00 Mostly Cloudy BKN110 60.1 21.9 23% 30.08 0.0
07 17:15 SE 9 10.00 Partly Cloudy SCT120 60.3 20.8 22% 30.09 0.0
07 16:55 E 9 10.00 Partly Cloudy SCT120 61.2 20.5 21% 30.08 0.0
07 16:35 SE 10 G 16 10.00 Mostly Cloudy BKN110 61.2 20.8 21% 30.09 0.0
07 16:15 SE 12 10.00 Mostly Cloudy BKN110 61.5 20.7 21% 30.09 0.0
07 15:55 SE 10 10.00 Fair CLR 64 21.4 19% 30.09 0.0
07 15:35 S 7 10.00 Fair CLR 61.2 20.5 21% 30.1 0.0
07 15:15 E 5 10.00 Fair CLR 61.7 21.2 21% 30.11 0.0
07 14:55 E 9 10.00 Fair CLR 59.9 20.1 21% 30.13 0.0
07 14:35 SE 6 10.00 Fair CLR 59 20.7 23% 30.14 0.0
07 14:15 SE 8 10.00 Fair CLR 58.3 21.6 24% 30.15 0.0
07 13:55 SE 5 10.00 Fair CLR 55.6 20.5 25% 30.17 0.0
07 13:35 E 7 10.00 Fair CLR 55.9 20.8 25% 30.18 0.0
07 13:15 SE 6 10.00 Fair CLR 53.4 19.9 27% 30.19 0.0
07 12:55 E 5 10.00 Fair CLR 52.9 19.4 27% 30.2 0.0
07 12:35 E 6 10.00 Fair CLR 51.3 19.9 29% 30.21 0.0
07 12:15 E 8 10.00 Fair CLR 50.4 20.1 30% 30.22 0.0
07 11:55 SE 9 10.00 Fair CLR 47.8 17.2 49.1 17.8 29% 44 30.22 0.0
07 11:35 E 5 10.00 Fair CLR 49.1 18.1 29% 48 30.23 0.0
07 11:15 SE 7 10.00 Fair CLR 46 18 33% 43 30.24 0.0
07 10:55 E 6 10.00 Fair CLR 46 18.7 34% 44 30.24 0.0
07 10:35 E 6 10.00 Fair CLR 44.8 19.9 37% 42 30.25 0.0
07 10:15 E 6 10.00 Fair CLR 42.8 20.1 40% 40 30.26 0.0
07 09:55 E 5 10.00 Fair CLR 41.4 19.6 42% 39 30.26 0.0
07 09:35 E 7 10.00 Fair CLR 40.5 19.8 43% 36 30.27 0.0
07 09:15 Calm 10.00 Fair CLR 38.5 17.6 43% 30.27 0.0
07 08:55 SE 5 10.00 Fair CLR 37.9 16.7 42% 35 30.28 0.0
07 08:35 Calm 10.00 Fair CLR 36 15.1 42% 30.28 0.0
07 08:15 W 5 10.00 Fair CLR 35.2 14.2 42% 32 30.28 0.0
07 07:55 W 10 10.00 Fair CLR 34 14 44% 27 30.28 0.0
07 07:35 W 5 10.00 Fair CLR 32 12.9 45% 28 30.28 0.0
07 07:15 W 6 10.00 Fair CLR 27.3 11.8 52% 22 30.27 0.0
07 06:55 SW 8 10.00 Fair CLR 25.9 11.5 54% 18 30.26 0.0
07 06:35 W 7 10.00 Fair CLR 23.7 11.5 59% 16 30.26 0.0
07 06:15 W 6 10.00 Fair CLR 19.8 8.8 62% 13 30.26 0.0
07 05:55 W 9 10.00 Fair CLR 23.4 11.1 29.3 20.5 59% 14 30.25 0.0
07 05:35 W 6 10.00 Fair CLR 22.3 10.9 62% 16 30.25 0.0
07 05:15 W 7 10.00 Fair CLR 23 10.8 59% 16 30.24 0.0
07 04:55 W 9 10.00 Fair CLR 27.5 12 52% 19 30.24 0.0
07 04:35 W 10 10.00 Fair CLR 28.9 12.7 51% 20 30.25 0.0
07 04:15 W 10 10.00 Fair CLR 28 13.1 53% 19 30.24 0.0
07 03:55 W 12 10.00 Fair CLR 27.1 14.4 59% 18 30.25 0.0
07 03:35 W 13 10.00 Fair CLR 27.5 13.5 55% 18 30.25 0.0
07 03:15 W 9 10.00 Fair CLR 24.6 13.8 63% 16 30.25 0.0
07 02:55 W 8 10.00 Fair CLR 27.1 14.2 58% 20 30.24 0.0
07 02:35 W 6 10.00 Fair CLR 27.1 14.9 60% 21 30.24 0.0
07 02:15 W 10 10.00 Fair CLR 25.9 14.5 62% 17 30.23 0.0
07 01:55 W 7 10.00 Fair CLR 25.2 13.8 62% 18 30.24 0.0
07 01:15 W 7 10.00 Fair CLR 24.3 14.5 66% 17 30.25 0.0
07 00:55 Calm 10.00 Fair CLR 28.2 15.3 58% 30.25 0.0
07 00:35 W 7 10.00 Fair CLR 27.1 14.7 59% 20 30.24 0.0
07 00:15 W 6 10.00 Fair CLR 27.3 16.5 64% 22 30.24 0.0
06 23:55 W 9 10.00 Fair CLR 28.2 17.2 46.6 27 63% 20 30.23 0.0
06 23:35 SW 6 10.00 Fair CLR 28.6 15.8 59% 23 30.22 0.0
06 23:15 W 6 10.00 Fair CLR 27.3 17.1 65% 22 30.22 0.0
06 22:55 W 6 10.00 Fair CLR 32.5 16.9 52% 28 30.21 0.0
06 22:35 SW 6 10.00 Fair CLR 31.6 16.9 54% 27 30.21 0.0
06 22:15 Calm 10.00 Fair CLR 33.4 18.7 55% 30.2 0.0
06 21:55 Calm 10.00 Fair CLR 31.8 25.2 76% 30.2 0.0
06 21:35 Calm 10.00 Fair CLR 30.2 26.6 86% 30.19 0.0
06 21:15 Calm 10.00 Fair CLR 30.7 25.5 81% 30.18 0.0
06 20:55 Calm 10.00 Fair CLR 33.6 28.6 82% 30.17 0.0
06 20:35 SE 3 10.00 Fair CLR 35.8 30.2 80% 30.17 0.0
06 20:15 SE 5 10.00 Partly Cloudy SCT036 37.2 30.2 76% 34 30.15 0.0
06 19:55 SE 7 10.00 Overcast BKN028 OVC036 38.7 29.8 71% 34 30.15 0.0
06 19:35 SE 12 10.00 Overcast BKN028 BKN036 OVC080 41.2 30.6 66% 35 30.13 0.0
06 19:15 E 5 10.00 Mostly Cloudy SCT030 SCT038 BKN080 42.8 29.7 60% 41 30.11 0.0
06 18:55 N 12 G 20 10.00 Partly Cloudy SCT038 SCT048 SCT080 46.2 14.4 28% 41 30.09 0.0
06 18:35 Calm 10.00 Mostly Cloudy SCT038 SCT048 BKN075 44.6 28 52% 30.09 0.0
06 18:15 S 7 10.00 Mostly Cloudy SCT060 BKN080 44.2 29.1 55% 41 30.08 0.0
06 17:55 SE 7 10.00 Mostly Cloudy SCT070 BKN080 43.7 29.8 45.1 34.9 58% 40 30.07 0.0
06 17:35 S 5 10.00 Mostly Cloudy BKN080 42.4 29.5 60% 40 30.07 0.0
06 17:15 E 9 10.00 Partly Cloudy SCT027 SCT034 43.5 30.2 60% 39 30.05 0.0
06 16:55 SE 6 10.00 Partly Cloudy SCT029 SCT034 SCT085 44.4 30.6 58% 42 30.05 0.0
06 16:35 SE 8 10.00 Partly Cloudy SCT070 SCT080 43.2 30.2 60% 39 30.03 0.0
06 16:15 E 8 10.00 Overcast SCT014 BKN065 OVC085 41.9 31.6 67% 37 30.03 0.0
06 15:55 E 8 10.00 Overcast SCT014 BKN070 OVC085 40.6 32.4 72% 36 30.03 0.0
06 15:35 E 9 10.00 Mostly Cloudy SCT010 BKN070 BKN085 41.2 33.8 75% 36 30.03 0.0
06 15:15 E 7 10.00 Overcast BKN008 BKN030 OVC070 38.8 32.7 79% 34 30.03 0.0
06 14:50 E 12 10.00 Light Drizzle SCT014 BKN033 OVC060 37.4 33.8 87% 30 30.02 0.0
06 14:35 E 9 10.00 Drizzle SCT016 BKN041 OVC060 38.8 32.9 79% 33 30.02 0.0
06 14:15 E 9 10.00 Overcast SCT037 SCT048 OVC060 39.4 32.4 76% 34 30.02 0.0
06 13:55 E 10 10.00 Overcast SCT039 OVC048 38.8 32.2 77% 33 30 0.0
06 13:35 E 14 10.00 Thunderstorm in Vicinity SCT025 BKN050 OVC060 40.1 34.3 80% 33 29.98 0.0
06 13:15 S 5 10.00 Overcast SCT026 SCT031 OVC090 40.8 31.8 70% 38 29.99 0.0
06 12:55 S 7 10.00 Mostly Cloudy SCT013 SCT022 BKN070 39.4 33.1 78% 35 29.99 0.0
06 12:35 S 7 7.00 Light Snow SCT013 BKN025 OVC048 36.3 32.4 86% 31 30.01 0.0
06 12:15 SW 10 10.00 Overcast SCT010 BKN033 OVC047 35.2 32.9 91% 28 30.01 0.0
06 11:55 SE 3 10.00 Light Snow SCT008 BKN030 OVC047 34.7 31.6 49.1 32.5 89% 29.99 0.0
06 11:35 W 14 G 23 0.50 Light Snow BKN006 OVC010 33.4 30.9 90% 25 29.98 0.0
06 11:15 NW 20 G 31 7.00 Light Snow SCT031 BKN037 OVC048 39.2 29.3 68% 30 29.96 0.0
06 10:55 NW 13 G 29 10.00 Thunderstorm Rain in Vicinity SCT027 BKN050 OVC060 43.3 30.9 62% 37 29.93 0.0
06 10:35 W 18 G 25 10.00 Overcast BKN050 OVC065 48.4 23.2 37% 42 29.91 0.0
06 10:15 S 10 10.00 Overcast OVC050 47.1 27.5 47% 43 29.9 0.0
06 09:55 Calm 10.00 Overcast SCT038 SCT043 OVC060 46 27.5 48% 29.91 0.0
06 09:15 E 5 10.00 Overcast SCT026 BKN047 OVC070 44.4 31.1 60% 42 29.92 0.0
06 08:55 E 8 10.00 Mostly Cloudy SCT040 SCT046 BKN075 42.8 31.6 65% 39 29.93 0.0
06 08:35 E 7 10.00 Overcast SCT034 BKN046 OVC075 39.9 31.1 71% 36 29.94 0.0
06 08:15 E 8 10.00 Mostly Cloudy SCT038 BKN046 BKN090 39.4 30.4 70% 34 29.94 0.0
06 07:55 E 9 10.00 Partly Cloudy SCT049 SCT100 39.9 30.6 69% 34 29.93 0.0
06 07:35 E 7 10.00 Partly Cloudy SCT100 37.2 29.3 73% 32 29.93 0.0
06 07:15 Calm 10.00 Partly Cloudy SCT060 SCT100 34.2 28.2 79% 29.93 0.0
06 06:55 Calm 10.00 Overcast OVC060 33.8 27.7 78% 29.92 0.0
06 06:35 Calm 10.00 Mostly Cloudy SCT070 BKN085 32.7 27.5 81% 29.91 0.0
06 06:15 Calm 10.00 Mostly Cloudy BKN085 35.8 24.4 63% 29.9 0.0
06 05:55 W 3 10.00 Fair CLR 36.5 24.8 41.9 33.1 63% 29.9 0.0
06 05:35 W 6 10.00 Partly Cloudy SCT095 36.9 24.8 62% 33 29.89 0.0
06 05:15 SW 7 10.00 Partly Cloudy SCT095 SCT120 35.8 25 65% 31 29.89 0.0
06 04:55 SW 5 10.00 Partly Cloudy SCT120 34.3 24.6 68% 31 29.89 0.0
06 04:35 SW 6 10.00 Fair CLR 35.1 24.4 65% 31 29.89 0.0
06 04:15 SW 7 10.00 Fair CLR 36.9 25.7 64% 32 29.89 0.0
06 03:55 SW 5 10.00 Fair CLR 36.9 26.1 65% 34 29.89 0.0
06 03:35 W 7 10.00 Fair CLR 34.2 25.3 70% 29 29.89 0.0
06 03:15 SW 7 10.00 Fair CLR 37.8 26.2 63% 33 29.89 0.0
06 02:55 SW 9 10.00 Partly Cloudy SCT120 37.4 25.9 63% 31 29.89 0.0
06 02:35 SW 7 10.00 Partly Cloudy SCT120 37.8 27 65% 33 29.9 0.0
06 02:15 SW 12 10.00 Fair CLR 39 25.7 59% 32 29.9 0.0
06 01:55 SW 13 10.00 Fair CLR 39.4 26.4 60% 32 29.91 0.0
06 01:35 W 14 10.00 Fair CLR 41.4 25.7 54% 35 29.9 0.0
06 01:15 W 14 G 20 10.00 Partly Cloudy SCT120 41.4 25.7 54% 35 29.91 0.0
06 00:55 W 10 G 16 10.00 Mostly Cloudy BKN120 40.8 26.2 56% 35 29.91 0.0
06 00:35 SW 15 10.00 Overcast OVC100 40.3 27.5 60% 33 29.91 0.0
06 00:15 SW 14 G 20 10.00 Overcast SCT080 OVC100 39.6 29.1 66% 32 29.91 0.0
05 23:55 SW 14 10.00 Overcast SCT090 OVC110 40.1 28.6 55.6 39.2 64% 33 29.9 0.0
05 23:15 SW 14 10.00 Partly Cloudy SCT120 39.7 29.3 66% 33 29.9 0.0
05 22:55 SW 15 G 18 10.00 Fair CLR 39.6 29.3 67% 32 29.9 0.0
05 22:35 SW 13 G 16 10.00 Partly Cloudy SCT120 40.3 27.9 61% 34 29.89 0.0
05 22:15 SW 14 G 17 10.00 Partly Cloudy SCT120 40.1 28.6 64% 33 29.9 0.0
05 21:55 SW 10 G 23 10.00 Mostly Cloudy SCT070 BKN120 41.4 29.3 62% 36 29.9 0.0
05 21:35 SW 10 10.00 Partly Cloudy SCT070 SCT080 SCT110 42.6 30.2 62% 37 29.9 0.0
05 21:15 SW 9 10.00 Partly Cloudy SCT110 42.1 29.8 62% 37 29.89 0.0
05 20:55 S 6 10.00 Mostly Cloudy SCT070 SCT080 BKN110 42.3 29.1 60% 39 29.87 0.0
05 20:35 SW 5 10.00 Overcast BKN070 OVC080 45 26.6 49% 43 29.88 0.0
05 20:15 W 9 G 18 10.00 Mostly Cloudy BKN090 BKN120 45.7 26.8 48% 42 29.86 0.0
05 19:55 SW 5 10.00 Partly Cloudy SCT120 47.3 24.3 40% 46 29.85 0.0
05 19:35 SW 13 G 22 10.00 Fair CLR 47.8 26.4 43% 43 29.82 0.0
05 19:15 W 22 G 29 10.00 Thunderstorm in Vicinity and Breezy SCT050 48.6 25.5 41% 42 29.8 0.0
05 18:55 W 23 G 39 10.00 Fair and Breezy CLR 46.6 27.1 47% 39 29.81 0.0
05 18:35 W 25 G 31 10.00 Fair and Breezy CLR 52.9 20.1 28% 29.79 0.0
05 18:15 W 20 G 29 10.00 Fair CLR 53.6 19.9 27% 29.79 0.0
05 17:55 SW 25 G 32 10.00 Fair and Breezy CLR 55.8 19.4 61.9 54.1 24% 29.78 0.0
05 17:35 SW 17 G 28 10.00 Partly Cloudy SCT080 58.5 19.4 22% 29.77 0.0
05 17:15 W 20 G 28 10.00 Mostly Cloudy BKN080 58.8 20.7 23% 29.78 0.0
05 16:55 W 20 G 29 10.00 Mostly Cloudy BKN090 58.6 21.6 24% 29.78 0.0
05 16:35 W 23 G 36 10.00 Fair and Breezy CLR 54.1 21.6 28% 29.79 0.0
05 16:15 SW 29 G 39 10.00 Fair and Windy CLR 55.6 21 26% 29.78 0.0
05 15:55 SW 24 G 32 10.00 Fair and Breezy CLR 55.8 19.6 24% 29.79 0.0
05 15:35 W 24 G 31 10.00 Fair and Breezy CLR 58.6 19.9 22% 29.79 0.0
05 15:15 W 24 G 35 10.00 Fair and Breezy CLR 60.6 19.6 20% 29.78 0.0
05 14:55 W 29 G 37 10.00 Fair and Windy CLR 61.7 17.1 18% 29.79 0.0
05 14:35 W 18 G 29 10.00 Fair CLR 61.3 16.7 18% 29.79 0.0
05 14:15 W 16 G 22 10.00 Fair CLR 59.4 17.2 19% 29.81 0.0
05 13:35 SW 13 G 17 10.00 Partly Cloudy SCT110 57.9 14 18% 29.81 0.0
05 13:15 SW 12 G 17 10.00 Partly Cloudy SCT100 56.8 15.3 19% 29.83 0.0
05 12:55 SW 10 G 16 10.00 Mostly Cloudy BKN100 56.8 16.5 20% 29.84 0.0
05 12:35 W 5 10.00 Mostly Cloudy SCT085 BKN120 55.6 21 26% 29.84 0.0
05 12:15 S 9 G 16 10.00 Mostly Cloudy SCT075 BKN120 54.7 21.9 28% 29.85 0.0
05 11:55 E 9 G 16 10.00 Partly Cloudy SCT075 54 21.7 55 41.7 28% 29.86 0.0
05 11:35 S 7 10.00 Partly Cloudy SCT075 SCT120 53.4 22.5 30% 29.86 0.0
05 11:15 SE 7 10.00 Mostly Cloudy BKN075 BKN100 52.5 20.1 28% 29.87 0.0
05 10:55 W 9 10.00 Mostly Cloudy SCT100 BKN120 52.3 20.7 29% 29.88 0.0
05 10:35 W 9 10.00 Overcast OVC120 51.1 20.3 30% 29.88 0.0
05 10:15 W 10 10.00 Mostly Cloudy BKN120 50.4 20.1 30% 29.89 0.0
05 09:55 W 10 10.00 Mostly Cloudy SCT080 BKN110 49.6 19.9 31% 46 29.89 0.0
05 09:35 SW 13 10.00 Overcast SCT080 OVC110 48.2 19.4 32% 43 29.9 0.0
05 09:15 SW 12 10.00 Overcast BKN080 OVC110 47.7 19 32% 43 29.91 0.0
05 08:55 W 16 10.00 Overcast SCT080 OVC110 46.9 18.5 32% 41 29.91 0.0
05 08:35 W 16 10.00 Mostly Cloudy SCT080 BKN120 46.9 19 33% 41 29.91 0.0
05 08:15 W 16 G 20 10.00 Fair CLR 45.9 19 34% 40 29.92 0.0
05 07:55 W 16 10.00 Fair CLR 44.6 18.7 35% 38 29.93 0.0
05 07:35 W 18 10.00 Fair CLR 44.6 17.6 34% 37 29.93 0.0
05 07:15 W 17 10.00 Fair CLR 43.9 16.9 34% 37 29.93 0.0
05 06:55 W 16 G 22 10.00 Fair CLR 43.2 16.7 34% 36 29.93 0.0
05 06:35 W 14 G 20 10.00 Fair CLR 42.8 16.3 34% 36 29.93 0.0
Date Time (mdt) Wind (mph) Vis. (mi.) Weather Sky Cond. Air Dwpt Max. Min. Relative Humidity Wind Chill (°F) Heat Index (°F) altimeter (in) sea level (mb) 1 hr 3 hr 6 hr
6 hour
Temperature (ºF) Pressure Precipitation (in)